DLH35X EKVG-EDDF
Flight info
| Callsign | DLH35X |
|---|---|
| Flight time | N/A |
| Altitude | 35000 |
| Route | RAKUP DCT NALAN DCT KOKAL DCT OVDAN DCT GIBSU DCT SUTEB DCT BEDUM DCT DIXAT DIXAT1D |
| Aircraft | A321/M-SDE3FGHIRWY/LB1 |
Departure
| Time | 2026-04-30 14:54 |
|---|---|
| Airport | Vágar Airport (EKVG) |
Arrival
| Time | N/A |
|---|---|
| Airport | Frankfurt Main Airport (EDDF) |
| Time | Latitude | Longitude | Altitude | Speed | Heading |
|---|---|---|---|---|---|
| 2026-04-30 14:18 | 62.06673 | -7.27860 | 279 ft | 0 kts | 28° |
| 2026-04-30 14:46 | 62.06657 | -7.27877 | 280 ft | 4 kts | 13° |
| 2026-04-30 14:46 | 62.06633 | -7.27877 | 279 ft | 4 kts | 326° |
| 2026-04-30 14:46 | 62.06622 | -7.27854 | 283 ft | 0 kts | 297° |
| 2026-04-30 14:50 | 62.06634 | -7.27904 | 282 ft | 7 kts | 297° |
| 2026-04-30 14:50 | 62.06655 | -7.28007 | 279 ft | 8 kts | 283° |
| 2026-04-30 14:51 | 62.06574 | -7.28093 | 280 ft | 10 kts | 189° |
| 2026-04-30 14:51 | 62.06510 | -7.28139 | 280 ft | 9 kts | 205° |
| 2026-04-30 14:51 | 62.06531 | -7.28410 | 279 ft | 14 kts | 296° |
| 2026-04-30 14:52 | 62.06582 | -7.28618 | 279 ft | 18 kts | 298° |
| 2026-04-30 14:52 | 62.06703 | -7.29104 | 269 ft | 9 kts | 297° |
| 2026-04-30 14:52 | 62.06738 | -7.29187 | 269 ft | 6 kts | 305° |
| 2026-04-30 14:53 | 62.06719 | -7.29206 | 269 ft | 1 kts | 114° |
| 2026-04-30 14:53 | 62.06718 | -7.29202 | 269 ft | 0 kts | 114° |
| 2026-04-30 14:54 | 62.06557 | -7.28523 | 278 ft | 92 kts | 118° |
| 2026-04-30 14:54 | 62.05664 | -7.24873 | 1103 ft | 153 kts | 127° |
| 2026-04-30 14:55 | 62.04570 | -7.20592 | 2437 ft | 170 kts | 126° |
| 2026-04-30 14:55 | 62.04002 | -7.18353 | 2855 ft | 173 kts | 127° |
| 2026-04-30 14:55 | 62.02796 | -7.13902 | 3525 ft | 177 kts | 145° |
| 2026-04-30 14:56 | 62.00431 | -7.11883 | 3930 ft | 202 kts | 171° |
| 2026-04-30 14:56 | 61.97491 | -7.10111 | 4418 ft | 240 kts | 169° |
| 2026-04-30 14:57 | 61.95857 | -7.09061 | 4899 ft | 252 kts | 169° |
| 2026-04-30 14:57 | 61.92707 | -7.05538 | 6334 ft | 259 kts | 157° |
| 2026-04-30 14:58 | 61.89537 | -7.01825 | 7648 ft | 263 kts | 159° |
| 2026-04-30 14:58 | 61.87948 | -6.99984 | 8315 ft | 264 kts | 159° |
| 2026-04-30 14:58 | 61.84698 | -6.96253 | 9675 ft | 267 kts | 160° |
| 2026-04-30 14:59 | 61.81353 | -6.92414 | 10486 ft | 289 kts | 160° |